Elberon, New Jersey
Current Conditions -  °F | °C
As of 8:35 AM on Sunday 21 Dec 2014 (Local Time) from KBLM Reporting Station
Overcast Overcast  
Wind Chill: 27°   Ceiling: 2300
Heat Index: 32°   Visibility: 10mi
Dew Point: 19°   Wind: 5mph
Humidity: 60%   Direction: 280°W
Pressure: 30.3"   Gusts: NA
Location:  40.2954°N, 73.9914°W
Report Text: KBLM 211335Z AUTO 28004KT 10SM OVC023 00/M07 A3030 RMK AO1
Loading
Personal Weather Stations






























Interactive Weather Map New forecast layout! Learn more

10-Day Weather Forecast

Advertisements
Track Severe Weather on mobile